sensor_id;sensor_type;location;lat;lon;timestamp;pressure;altitude;pressure_sealevel;temperature;humidity
21129;BME280;10722;51.910;8.352;2023-08-08T00:00:53;100657.91;;;12.36;100.00
21129;BME280;10722;51.910;8.352;2023-08-08T00:03:39;100649.31;;;12.38;100.00
21129;BME280;10722;51.910;8.352;2023-08-08T00:06:24;100649.31;;;12.41;100.00
21129;BME280;10722;51.910;8.352;2023-08-08T00:09:09;100633.78;;;12.43;100.00
21129;BME280;10722;51.910;8.352;2023-08-08T00:11:54;100636.44;;;12.47;100.00
21129;BME280;10722;51.910;8.352;2023-08-08T00:14:40;100626.94;;;12.52;100.00
21129;BME280;10722;51.910;8.352;2023-08-08T00:17:25;100618.28;;;12.52;100.00
21129;BME280;10722;51.910;8.352;2023-08-08T00:20:10;100619.22;;;12.59;100.00
21129;BME280;10722;51.910;8.352;2023-08-08T00:22:55;100611.50;;;12.68;100.00
21129;BME280;10722;51.910;8.352;2023-08-08T00:25:40;100616.72;;;12.74;100.00
21129;BME280;10722;51.910;8.352;2023-08-08T00:28:25;100607.22;;;12.73;100.00
21129;BME280;10722;51.910;8.352;2023-08-08T00:31:10;100608.97;;;12.80;100.00
21129;BME280;10722;51.910;8.352;2023-08-08T00:33:55;100603.84;;;12.88;100.00
21129;BME280;10722;51.910;8.352;2023-08-08T00:36:40;100598.69;;;12.92;100.00
21129;BME280;10722;51.910;8.352;2023-08-08T00:39:25;100596.06;;;12.91;100.00
21129;BME280;10722;51.910;8.352;2023-08-08T00:42:10;100582.25;;;12.96;100.00
21129;BME280;10722;51.910;8.352;2023-08-08T00:44:55;100578.81;;;13.02;100.00
21129;BME280;10722;51.910;8.352;2023-08-08T00:47:40;100574.50;;;13.07;100.00
21129;BME280;10722;51.910;8.352;2023-08-08T00:50:26;100565.88;;;13.17;100.00
21129;BME280;10722;51.910;8.352;2023-08-08T00:53:11;100565.03;;;13.20;100.00
21129;BME280;10722;51.910;8.352;2023-08-08T00:55:58;100565.97;;;13.28;100.00
21129;BME280;10722;51.910;8.352;2023-08-08T00:58:44;100567.69;;;13.26;100.00
21129;BME280;10722;51.910;8.352;2023-08-08T01:01:29;100556.44;;;13.32;100.00
21129;BME280;10722;51.910;8.352;2023-08-08T01:04:15;100553.88;;;13.33;100.00
21129;BME280;10722;51.910;8.352;2023-08-08T01:07:38;100556.47;;;13.36;100.00
21129;BME280;10722;51.910;8.352;2023-08-08T01:10:39;100550.44;;;13.40;100.00
21129;BME280;10722;51.910;8.352;2023-08-08T01:13:26;100549.59;;;13.46;100.00
21129;BME280;10722;51.910;8.352;2023-08-08T01:16:13;100552.16;;;13.41;100.00
21129;BME280;10722;51.910;8.352;2023-08-08T01:18:59;100549.59;;;13.49;100.00
21129;BME280;10722;51.910;8.352;2023-08-08T01:21:45;100553.03;;;13.48;100.00
21129;BME280;10722;51.910;8.352;2023-08-08T01:24:32;100550.47;;;13.50;100.00
21129;BME280;10722;51.910;8.352;2023-08-08T01:27:18;100541.78;;;13.44;100.00
21129;BME280;10722;51.910;8.352;2023-08-08T01:30:03;100542.63;;;13.42;100.00
21129;BME280;10722;51.910;8.352;2023-08-08T01:32:49;100529.66;;;13.40;100.00
21129;BME280;10722;51.910;8.352;2023-08-08T01:35:37;100527.88;;;13.32;100.00
21129;BME280;10722;51.910;8.352;2023-08-08T01:38:30;100541.75;;;13.29;100.00
21129;BME280;10722;51.910;8.352;2023-08-08T01:41:17;100540.00;;;13.28;100.00
21129;BME280;10722;51.910;8.352;2023-08-08T01:44:03;100544.25;;;13.15;100.00
21129;BME280;10722;51.910;8.352;2023-08-08T01:46:48;100546.84;;;13.17;100.00
21129;BME280;10722;51.910;8.352;2023-08-08T01:49:33;100545.94;;;13.07;100.00
21129;BME280;10722;51.910;8.352;2023-08-08T01:52:18;100554.53;;;12.97;100.00
21129;BME280;10722;51.910;8.352;2023-08-08T01:55:04;100559.72;;;12.94;100.00
21129;BME280;10722;51.910;8.352;2023-08-08T01:57:49;100565.75;;;12.85;100.00
21129;BME280;10722;51.910;8.352;2023-08-08T02:00:34;100581.28;;;12.79;100.00
21129;BME280;10722;51.910;8.352;2023-08-08T02:03:19;100579.47;;;12.66;100.00
21129;BME280;10722;51.910;8.352;2023-08-08T02:06:05;100581.97;;;12.55;100.00
21129;BME280;10722;51.910;8.352;2023-08-08T02:08:50;100569.91;;;12.59;100.00
21129;BME280;10722;51.910;8.352;2023-08-08T02:11:35;100570.75;;;12.57;100.00
21129;BME280;10722;51.910;8.352;2023-08-08T02:14:20;100569.00;;;12.50;100.00
21129;BME280;10722;51.910;8.352;2023-08-08T02:17:05;100571.56;;;12.49;100.00
21129;BME280;10722;51.910;8.352;2023-08-08T02:19:51;100562.88;;;12.47;100.00
21129;BME280;10722;51.910;8.352;2023-08-08T02:22:36;100559.38;;;12.40;100.00
21129;BME280;10722;51.910;8.352;2023-08-08T02:25:21;100550.75;;;12.43;100.00
21129;BME280;10722;51.910;8.352;2023-08-08T02:28:06;100549.91;;;12.45;100.00
21129;BME280;10722;51.910;8.352;2023-08-08T02:30:51;100536.88;;;12.38;100.00
21129;BME280;10722;51.910;8.352;2023-08-08T02:33:36;100536.06;;;12.43;100.00
21129;BME280;10722;51.910;8.352;2023-08-08T02:36:21;100542.94;;;12.38;100.00
21129;BME280;10722;51.910;8.352;2023-08-08T02:39:06;100533.38;;;12.32;100.00
21129;BME280;10722;51.910;8.352;2023-08-08T02:41:51;100536.84;;;12.33;100.00
21129;BME280;10722;51.910;8.352;2023-08-08T02:44:36;100541.16;;;12.28;100.00
21129;BME280;10722;51.910;8.352;2023-08-08T02:47:20;100532.44;;;12.24;100.00
21129;BME280;10722;51.910;8.352;2023-08-08T02:50:06;100529.84;;;12.24;100.00
21129;BME280;10722;51.910;8.352;2023-08-08T02:52:51;100523.78;;;12.21;100.00
21129;BME280;10722;51.910;8.352;2023-08-08T02:55:36;100526.34;;;12.16;100.00
21129;BME280;10722;51.910;8.352;2023-08-08T02:58:22;100525.44;;;12.11;100.00
21129;BME280;10722;51.910;8.352;2023-08-08T03:01:07;100527.16;;;12.09;100.00
21129;BME280;10722;51.910;8.352;2023-08-08T03:03:52;100533.22;;;12.08;100.00
21129;BME280;10722;51.910;8.352;2023-08-08T03:06:37;100531.47;;;12.08;100.00
21129;BME280;10722;51.910;8.352;2023-08-08T03:09:22;100536.66;;;12.10;100.00
21129;BME280;10722;51.910;8.352;2023-08-08T03:12:08;100532.41;;;12.17;100.00
21129;BME280;10722;51.910;8.352;2023-08-08T03:14:53;100521.19;;;12.21;100.00
21129;BME280;10722;51.910;8.352;2023-08-08T03:17:38;100517.75;;;12.23;100.00
21129;BME280;10722;51.910;8.352;2023-08-08T03:20:24;100508.31;;;12.33;100.00
21129;BME280;10722;51.910;8.352;2023-08-08T03:23:09;100504.03;;;12.37;100.00
21129;BME280;10722;51.910;8.352;2023-08-08T03:25:54;100500.59;;;12.44;100.00
21129;BME280;10722;51.910;8.352;2023-08-08T03:28:39;100497.19;;;12.48;100.00
21129;BME280;10722;51.910;8.352;2023-08-08T03:31:24;100500.69;;;12.57;100.00
21129;BME280;10722;51.910;8.352;2023-08-08T03:34:09;100487.78;;;12.70;100.00
21129;BME280;10722;51.910;8.352;2023-08-08T03:36:55;100485.19;;;12.74;100.00
21129;BME280;10722;51.910;8.352;2023-08-08T03:39:40;100476.59;;;12.78;100.00
21129;BME280;10722;51.910;8.352;2023-08-08T03:42:25;100479.19;;;12.82;100.00
21129;BME280;10722;51.910;8.352;2023-08-08T03:45:11;100468.78;;;12.80;100.00
21129;BME280;10722;51.910;8.352;2023-08-08T03:47:56;100475.72;;;12.81;100.00
21129;BME280;10722;51.910;8.352;2023-08-08T03:50:41;100470.56;;;12.89;100.00
21129;BME280;10722;51.910;8.352;2023-08-08T03:53:26;100458.41;;;12.86;100.00
21129;BME280;10722;51.910;8.352;2023-08-08T03:56:12;100461.88;;;12.85;100.00
21129;BME280;10722;51.910;8.352;2023-08-08T03:58:57;100461.91;;;12.88;100.00
21129;BME280;10722;51.910;8.352;2023-08-08T04:01:43;100461.91;;;12.90;100.00
21129;BME280;10722;51.910;8.352;2023-08-08T04:04:28;100454.97;;;12.89;100.00
21129;BME280;10722;51.910;8.352;2023-08-08T04:07:13;100460.19;;;12.90;100.00
21129;BME280;10722;51.910;8.352;2023-08-08T04:09:58;100461.03;;;12.91;100.00
21129;BME280;10722;51.910;8.352;2023-08-08T04:12:43;100469.69;;;12.88;100.00
21129;BME280;10722;51.910;8.352;2023-08-08T04:15:28;100468.78;;;12.83;100.00
21129;BME280;10722;51.910;8.352;2023-08-08T04:18:13;100486.13;;;12.87;100.00
21129;BME280;10722;51.910;8.352;2023-08-08T04:20:58;100486.97;;;12.86;100.00
21129;BME280;10722;51.910;8.352;2023-08-08T04:23:43;100483.47;;;12.78;100.00
21129;BME280;10722;51.910;8.352;2023-08-08T04:26:28;100485.25;;;12.85;100.00
21129;BME280;10722;51.910;8.352;2023-08-08T04:29:14;100485.25;;;12.82;100.00
21129;BME280;10722;51.910;8.352;2023-08-08T04:31:59;100489.56;;;12.83;100.00
21129;BME280;10722;51.910;8.352;2023-08-08T04:34:45;100496.50;;;12.84;100.00
21129;BME280;10722;51.910;8.352;2023-08-08T04:37:30;100492.16;;;12.80;100.00
21129;BME280;10722;51.910;8.352;2023-08-08T04:40:15;100487.84;;;12.82;100.00
21129;BME280;10722;51.910;8.352;2023-08-08T04:43:01;100489.56;;;12.80;100.00
21129;BME280;10722;51.910;8.352;2023-08-08T04:45:46;100486.97;;;12.83;100.00
21129;BME280;10722;51.910;8.352;2023-08-08T04:48:32;100486.97;;;12.83;100.00
21129;BME280;10722;51.910;8.352;2023-08-08T04:51:17;100478.34;;;12.84;100.00
21129;BME280;10722;51.910;8.352;2023-08-08T04:54:02;100474.00;;;12.88;100.00
21129;BME280;10722;51.910;8.352;2023-08-08T04:56:47;100482.69;;;12.87;100.00
21129;BME280;10722;51.910;8.352;2023-08-08T04:59:31;100467.97;;;12.90;100.00
21129;BME280;10722;51.910;8.352;2023-08-08T05:02:16;100467.09;;;12.91;100.00
21129;BME280;10722;51.910;8.352;2023-08-08T05:05:02;100459.34;;;12.99;100.00
21129;BME280;10722;51.910;8.352;2023-08-08T05:07:48;100458.47;;;12.97;100.00
21129;BME280;10722;51.910;8.352;2023-08-08T05:10:32;100468.84;;;12.97;100.00
21129;BME280;10722;51.910;8.352;2023-08-08T05:13:18;100463.66;;;13.03;100.00
21129;BME280;10722;51.910;8.352;2023-08-08T05:16:03;100468.91;;;13.08;100.00
21129;BME280;10722;51.910;8.352;2023-08-08T05:18:48;100476.69;;;13.05;100.00
21129;BME280;10722;51.910;8.352;2023-08-08T05:21:34;100467.16;;;13.05;100.00
21129;BME280;10722;51.910;8.352;2023-08-08T05:24:19;100459.38;;;13.11;100.00
21129;BME280;10722;51.910;8.352;2023-08-08T05:27:05;100465.44;;;13.10;100.00
21129;BME280;10722;51.910;8.352;2023-08-08T05:29:50;100457.66;;;13.13;100.00
21129;BME280;10722;51.910;8.352;2023-08-08T05:32:35;100458.53;;;13.17;100.00
21129;BME280;10722;51.910;8.352;2023-08-08T05:35:19;100448.16;;;13.18;100.00
21129;BME280;10722;51.910;8.352;2023-08-08T05:38:04;100459.44;;;13.28;100.00
21129;BME280;10722;51.910;8.352;2023-08-08T05:40:49;100459.44;;;13.23;100.00
21129;BME280;10722;51.910;8.352;2023-08-08T05:43:34;100458.53;;;13.20;100.00
21129;BME280;10722;51.910;8.352;2023-08-08T05:46:19;100451.59;;;13.20;100.00
21129;BME280;10722;51.910;8.352;2023-08-08T05:49:05;100452.47;;;13.22;100.00
21129;BME280;10722;51.910;8.352;2023-08-08T05:51:50;100460.28;;;13.18;100.00
21129;BME280;10722;51.910;8.352;2023-08-08T05:54:35;100456.84;;;13.28;100.00
21129;BME280;10722;51.910;8.352;2023-08-08T05:57:21;100448.22;;;13.32;100.00
21129;BME280;10722;51.910;8.352;2023-08-08T06:00:07;100451.66;;;13.31;100.00
21129;BME280;10722;51.910;8.352;2023-08-08T06:02:52;100456.00;;;13.31;100.00
21129;BME280;10722;51.910;8.352;2023-08-08T06:05:37;100462.06;;;13.34;100.00
21129;BME280;10722;51.910;8.352;2023-08-08T06:08:22;100458.59;;;13.37;100.00
21129;BME280;10722;51.910;8.352;2023-08-08T06:11:07;100462.09;;;13.43;100.00
21129;BME280;10722;51.910;8.352;2023-08-08T06:13:52;100458.63;;;13.48;100.00
21129;BME280;10722;51.910;8.352;2023-08-08T06:16:37;100456.91;;;13.50;100.00
21129;BME280;10722;51.910;8.352;2023-08-08T06:19:23;100462.97;;;13.58;100.00
21129;BME280;10722;51.910;8.352;2023-08-08T06:22:07;100466.44;;;13.69;100.00
21129;BME280;10722;51.910;8.352;2023-08-08T06:24:53;100461.25;;;13.83;100.00
21129;BME280;10722;51.910;8.352;2023-08-08T06:27:38;100457.78;;;13.75;100.00
21129;BME280;10722;51.910;8.352;2023-08-08T06:30:23;100472.53;;;13.74;100.00
21129;BME280;10722;51.910;8.352;2023-08-08T06:33:08;100469.06;;;13.63;100.00
21129;BME280;10722;51.910;8.352;2023-08-08T06:35:55;100471.63;;;13.74;100.00
21129;BME280;10722;51.910;8.352;2023-08-08T06:38:41;100474.25;;;13.75;100.00
21129;BME280;10722;51.910;8.352;2023-08-08T06:41:26;100466.44;;;13.92;100.00
21129;BME280;10722;51.910;8.352;2023-08-08T06:44:11;100469.91;;;14.03;100.00
21129;BME280;10722;51.910;8.352;2023-08-08T06:46:57;100470.78;;;13.96;100.00
21129;BME280;10722;51.910;8.352;2023-08-08T06:49:41;100466.44;;;14.07;100.00
21129;BME280;10722;51.910;8.352;2023-08-08T06:52:26;100464.72;;;14.14;100.00
21129;BME280;10722;51.910;8.352;2023-08-08T06:55:11;100469.03;;;14.15;100.00
21129;BME280;10722;51.910;8.352;2023-08-08T06:57:56;100456.91;;;14.17;100.00
21129;BME280;10722;51.910;8.352;2023-08-08T07:00:41;100467.28;;;14.31;100.00
21129;BME280;10722;51.910;8.352;2023-08-08T07:03:26;100462.06;;;14.29;100.00
21129;BME280;10722;51.910;8.352;2023-08-08T07:06:12;100462.06;;;14.34;100.00
21129;BME280;10722;51.910;8.352;2023-08-08T07:08:57;100456.84;;;14.32;100.00
21129;BME280;10722;51.910;8.352;2023-08-08T07:11:42;100451.66;;;14.29;100.00
21129;BME280;10722;51.910;8.352;2023-08-08T07:14:27;100459.44;;;14.35;100.00
21129;BME280;10722;51.910;8.352;2023-08-08T07:17:12;100462.91;;;14.38;100.00
21129;BME280;10722;51.910;8.352;2023-08-08T07:19:57;100462.91;;;14.41;100.00
21129;BME280;10722;51.910;8.352;2023-08-08T07:22:42;100440.34;;;14.43;100.00
21129;BME280;10722;51.910;8.352;2023-08-08T07:25:27;100459.44;;;14.45;100.00
21129;BME280;10722;51.910;8.352;2023-08-08T07:28:12;100439.44;;;14.50;100.00
21129;BME280;10722;51.910;8.352;2023-08-08T07:30:57;100443.84;;;14.54;100.00
21129;BME280;10722;51.910;8.352;2023-08-08T07:33:42;100435.13;;;14.64;100.00
21129;BME280;10722;51.910;8.352;2023-08-08T07:36:27;100438.56;;;14.68;100.00
21129;BME280;10722;51.910;8.352;2023-08-08T07:39:12;100423.84;;;14.62;100.00
21129;BME280;10722;51.910;8.352;2023-08-08T07:41:57;100432.53;;;14.64;100.00
21129;BME280;10722;51.910;8.352;2023-08-08T07:44:43;100429.91;;;14.64;100.00
21129;BME280;10722;51.910;8.352;2023-08-08T07:47:28;100426.47;;;14.56;100.00
21129;BME280;10722;51.910;8.352;2023-08-08T07:50:13;100428.19;;;14.55;100.00
21129;BME280;10722;51.910;8.352;2023-08-08T07:52:59;100429.97;;;14.53;100.00
21129;BME280;10722;51.910;8.352;2023-08-08T07:55:44;100427.31;;;14.49;100.00
21129;BME280;10722;51.910;8.352;2023-08-08T07:58:29;100422.13;;;14.52;100.00
21129;BME280;10722;51.910;8.352;2023-08-08T08:01:14;100422.97;;;14.60;100.00
21129;BME280;10722;51.910;8.352;2023-08-08T08:03:59;100431.66;;;14.61;100.00
21129;BME280;10722;51.910;8.352;2023-08-08T08:06:45;100423.81;;;14.71;100.00
21129;BME280;10722;51.910;8.352;2023-08-08T08:09:30;100421.16;;;14.80;100.00
21129;BME280;10722;51.910;8.352;2023-08-08T08:12:14;100414.22;;;14.81;100.00
21129;BME280;10722;51.910;8.352;2023-08-08T08:14:59;100415.06;;;14.83;100.00
21129;BME280;10722;51.910;8.352;2023-08-08T08:17:44;100409.91;;;14.78;100.00
21129;BME280;10722;51.910;8.352;2023-08-08T08:20:30;100414.19;;;14.86;100.00
21129;BME280;10722;51.910;8.352;2023-08-08T08:23:16;100418.47;;;14.99;100.00
21129;BME280;10722;51.910;8.352;2023-08-08T08:26:00;100402.00;;;14.89;100.00
21129;BME280;10722;51.910;8.352;2023-08-08T08:28:45;100404.63;;;14.91;100.00
21129;BME280;10722;51.910;8.352;2023-08-08T08:31:31;100414.13;;;14.95;100.00
21129;BME280;10722;51.910;8.352;2023-08-08T08:34:16;100407.28;;;14.82;100.00
21129;BME280;10722;51.910;8.352;2023-08-08T08:37:01;100418.59;;;14.73;100.00
21129;BME280;10722;51.910;8.352;2023-08-08T08:39:47;100404.72;;;14.69;100.00
21129;BME280;10722;51.910;8.352;2023-08-08T08:42:32;100398.59;;;14.75;100.00
21129;BME280;10722;51.910;8.352;2023-08-08T08:45:19;100401.19;;;14.78;100.00
21129;BME280;10722;51.910;8.352;2023-08-08T08:48:08;100395.19;;;14.70;100.00
21129;BME280;10722;51.910;8.352;2023-08-08T08:50:54;100416.00;;;14.70;100.00
21129;BME280;10722;51.910;8.352;2023-08-08T08:53:40;100400.38;;;14.68;100.00
21129;BME280;10722;51.910;8.352;2023-08-08T08:56:25;100395.09;;;14.82;100.00
21129;BME280;10722;51.910;8.352;2023-08-08T08:59:10;100399.38;;;14.94;100.00
21129;BME280;10722;51.910;8.352;2023-08-08T09:01:56;100395.00;;;15.00;100.00
21129;BME280;10722;51.910;8.352;2023-08-08T09:04:42;100380.25;;;14.99;100.00
21129;BME280;10722;51.910;8.352;2023-08-08T09:07:29;100397.69;;;14.87;100.00
21129;BME280;10722;51.910;8.352;2023-08-08T09:10:15;100387.28;;;14.85;100.00
21129;BME280;10722;51.910;8.352;2023-08-08T09:13:01;100422.13;;;14.55;100.00
21129;BME280;10722;51.910;8.352;2023-08-08T09:15:47;100438.63;;;14.35;100.00
21129;BME280;10722;51.910;8.352;2023-08-08T09:18:33;100455.16;;;14.28;100.00
21129;BME280;10722;51.910;8.352;2023-08-08T09:21:18;100475.13;;;14.11;100.00
21129;BME280;10722;51.910;8.352;2023-08-08T09:24:04;100476.00;;;13.88;100.00
21129;BME280;10722;51.910;8.352;2023-08-08T09:26:49;100462.97;;;13.73;100.00
21129;BME280;10722;51.910;8.352;2023-08-08T09:29:34;100464.72;;;13.91;100.00
21129;BME280;10722;51.910;8.352;2023-08-08T09:32:19;100466.41;;;14.40;100.00
21129;BME280;10722;51.910;8.352;2023-08-08T09:35:04;100452.31;;;15.00;100.00
21129;BME280;10722;51.910;8.352;2023-08-08T09:37:53;100450.28;;;15.50;100.00
21129;BME280;10722;51.910;8.352;2023-08-08T09:40:38;100429.44;;;15.47;100.00
21129;BME280;10722;51.910;8.352;2023-08-08T09:43:24;100426.69;;;15.72;100.00
21129;BME280;10722;51.910;8.352;2023-08-08T09:46:09;100414.28;;;16.00;100.00
21129;BME280;10722;51.910;8.352;2023-08-08T09:48:55;100417.59;;;16.14;100.00
21129;BME280;10722;51.910;8.352;2023-08-08T09:51:41;100407.00;;;16.29;100.00
21129;BME280;10722;51.910;8.352;2023-08-08T09:54:28;100380.50;;;16.62;100.00
21129;BME280;10722;51.910;8.352;2023-08-08T09:57:13;100364.66;;;16.77;100.00
21129;BME280;10722;51.910;8.352;2023-08-08T09:59:59;100351.16;;;17.06;100.00
21129;BME280;10722;51.910;8.352;2023-08-08T10:02:45;100313.91;;;16.93;99.75
21129;BME280;10722;51.910;8.352;2023-08-08T10:05:31;100308.25;;;17.21;98.40
21129;BME280;10722;51.910;8.352;2023-08-08T10:08:17;100300.53;;;17.13;97.14
21129;BME280;10722;51.910;8.352;2023-08-08T10:11:05;100267.50;;;17.09;93.53
21129;BME280;10722;51.910;8.352;2023-08-08T10:13:53;100214.22;;;17.18;89.68
21129;BME280;10722;51.910;8.352;2023-08-08T10:16:38;100193.38;;;17.60;87.86
21129;BME280;10722;51.910;8.352;2023-08-08T10:19:24;100190.25;;;17.86;85.87
21129;BME280;10722;51.910;8.352;2023-08-08T10:22:09;100187.44;;;17.52;85.10
21129;BME280;10722;51.910;8.352;2023-08-08T10:24:55;100168.63;;;17.33;83.79
21129;BME280;10722;51.910;8.352;2023-08-08T10:27:40;100192.94;;;17.36;84.14
21129;BME280;10722;51.910;8.352;2023-08-08T10:30:25;100210.53;;;17.28;84.67
21129;BME280;10722;51.910;8.352;2023-08-08T10:36:04;100229.22;;;17.55;83.79
21129;BME280;10722;51.910;8.352;2023-08-08T10:38:49;100201.25;;;18.02;81.87
21129;BME280;10722;51.910;8.352;2023-08-08T10:41:44;100127.94;;;18.05;78.11
21129;BME280;10722;51.910;8.352;2023-08-08T10:44:31;100130.66;;;17.99;77.20
21129;BME280;10722;51.910;8.352;2023-08-08T10:47:16;100151.50;;;17.61;77.99
21129;BME280;10722;51.910;8.352;2023-08-08T10:50:14;100190.50;;;17.72;79.22
21129;BME280;10722;51.910;8.352;2023-08-08T10:53:00;100207.38;;;18.02;78.88
21129;BME280;10722;51.910;8.352;2023-08-08T10:55:46;100149.44;;;17.77;76.98
21129;BME280;10722;51.910;8.352;2023-08-08T10:58:38;100152.75;;;18.26;76.30
21129;BME280;10722;51.910;8.352;2023-08-08T11:01:25;100170.50;;;18.50;76.47
21129;BME280;10722;51.910;8.352;2023-08-08T11:04:10;100084.47;;;18.33;73.35
21129;BME280;10722;51.910;8.352;2023-08-08T11:06:56;100059.56;;;18.17;71.30
21129;BME280;10722;51.910;8.352;2023-08-08T11:09:42;100119.56;;;18.26;71.39
21129;BME280;10722;51.910;8.352;2023-08-08T11:12:27;100104.09;;;18.53;69.96
21129;BME280;10722;51.910;8.352;2023-08-08T11:15:12;100069.53;;;18.71;68.40
21129;BME280;10722;51.910;8.352;2023-08-08T11:17:58;100058.13;;;18.75;67.93
21129;BME280;10722;51.910;8.352;2023-08-08T11:20:44;100078.03;;;19.14;67.66
21129;BME280;10722;51.910;8.352;2023-08-08T11:23:29;100049.25;;;19.12;66.65
21129;BME280;10722;51.910;8.352;2023-08-08T11:26:17;99995.25;;;18.75;63.91
21129;BME280;10722;51.910;8.352;2023-08-08T11:29:03;100089.91;;;19.27;65.89
21129;BME280;10722;51.910;8.352;2023-08-08T11:31:49;100062.06;;;19.82;64.48
21129;BME280;10722;51.910;8.352;2023-08-08T11:34:34;100075.34;;;20.04;64.67
21129;BME280;10722;51.910;8.352;2023-08-08T11:37:20;100056.78;;;20.37;63.26
21129;BME280;10722;51.910;8.352;2023-08-08T11:40:06;99999.53;;;19.95;60.77
21129;BME280;10722;51.910;8.352;2023-08-08T11:42:52;100018.91;;;19.91;60.60
21129;BME280;10722;51.910;8.352;2023-08-08T11:45:38;100016.97;;;19.10;60.86
21129;BME280;10722;51.910;8.352;2023-08-08T11:48:23;100046.22;;;18.95;61.91
21129;BME280;10722;51.910;8.352;2023-08-08T11:51:09;100069.09;;;19.21;62.46
21129;BME280;10722;51.910;8.352;2023-08-08T11:53:54;100071.91;;;19.15;61.98
21129;BME280;10722;51.910;8.352;2023-08-08T11:56:39;100079.63;;;19.19;62.06
21129;BME280;10722;51.910;8.352;2023-08-08T11:59:24;100064.63;;;19.24;61.30
21129;BME280;10722;51.910;8.352;2023-08-08T12:02:10;100076.31;;;19.44;60.99
21129;BME280;10722;51.910;8.352;2023-08-08T12:04:55;100112.00;;;19.18;62.94
21129;BME280;10722;51.910;8.352;2023-08-08T12:07:40;100126.41;;;19.64;63.12
21129;BME280;10722;51.910;8.352;2023-08-08T12:10:25;100069.97;;;19.20;61.11
21129;BME280;10722;51.910;8.352;2023-08-08T12:13:10;100082.84;;;18.98;62.29
21129;BME280;10722;51.910;8.352;2023-08-08T12:15:57;100105.00;;;19.17;62.37
21129;BME280;10722;51.910;8.352;2023-08-08T12:18:44;100084.72;;;19.55;61.82
21129;BME280;10722;51.910;8.352;2023-08-08T12:21:29;100124.59;;;19.68;62.75
21129;BME280;10722;51.910;8.352;2023-08-08T12:24:14;100075.41;;;19.14;61.15
21129;BME280;10722;51.910;8.352;2023-08-08T12:26:59;100096.53;;;19.70;61.19
21129;BME280;10722;51.910;8.352;2023-08-08T12:29:44;100075.00;;;20.15;59.86
21129;BME280;10722;51.910;8.352;2023-08-08T12:32:29;100053.59;;;20.01;58.75
21129;BME280;10722;51.910;8.352;2023-08-08T12:35:14;100077.13;;;19.76;59.75
21129;BME280;10722;51.910;8.352;2023-08-08T12:37:59;100074.53;;;19.44;59.85
21129;BME280;10722;51.910;8.352;2023-08-08T12:40:44;100077.16;;;19.44;59.59
21129;BME280;10722;51.910;8.352;2023-08-08T12:43:30;100063.19;;;19.74;58.96
21129;BME280;10722;51.910;8.352;2023-08-08T12:46:14;100043.38;;;19.63;58.15
21129;BME280;10722;51.910;8.352;2023-08-08T12:49:00;100080.25;;;19.27;59.95
21129;BME280;10722;51.910;8.352;2023-08-08T12:51:45;100109.94;;;19.30;60.87
21129;BME280;10722;51.910;8.352;2023-08-08T12:54:30;100125.03;;;19.51;60.88
21129;BME280;10722;51.910;8.352;2023-08-08T12:57:15;100121.19;;;19.02;61.44
21129;BME280;10722;51.910;8.352;2023-08-08T13:00:00;100103.56;;;19.07;60.41
21129;BME280;10722;51.910;8.352;2023-08-08T13:02:45;100125.19;;;19.78;59.95
21129;BME280;10722;51.910;8.352;2023-08-08T13:05:31;100103.81;;;20.18;59.04
21129;BME280;10722;51.910;8.352;2023-08-08T13:08:16;100073.13;;;19.33;58.61
21129;BME280;10722;51.910;8.352;2023-08-08T13:11:01;100083.72;;;19.30;59.19
21129;BME280;10722;51.910;8.352;2023-08-08T13:13:46;100116.50;;;19.76;59.61
21129;BME280;10722;51.910;8.352;2023-08-08T13:16:31;100118.28;;;19.44;60.04
21129;BME280;10722;51.910;8.352;2023-08-08T13:19:17;100120.78;;;18.85;61.69
21129;BME280;10722;51.910;8.352;2023-08-08T13:22:02;100128.44;;;18.92;61.71
21129;BME280;10722;51.910;8.352;2023-08-08T13:24:47;100156.88;;;19.06;62.93
21129;BME280;10722;51.910;8.352;2023-08-08T13:27:32;100171.31;;;18.90;64.01
21129;BME280;10722;51.910;8.352;2023-08-08T13:30:18;100176.06;;;18.36;64.44
21129;BME280;10722;51.910;8.352;2023-08-08T13:33:03;100186.41;;;18.41;64.90
21129;BME280;10722;51.910;8.352;2023-08-08T13:35:48;100202.09;;;18.04;65.24
21129;BME280;10722;51.910;8.352;2023-08-08T13:38:33;100181.16;;;18.04;64.46
21129;BME280;10722;51.910;8.352;2023-08-08T13:41:18;100194.03;;;18.52;65.20
21129;BME280;10722;51.910;8.352;2023-08-08T13:44:03;100183.94;;;18.74;63.88
21129;BME280;10722;51.910;8.352;2023-08-08T13:46:48;100183.59;;;18.86;64.46
21129;BME280;10722;51.910;8.352;2023-08-08T13:49:33;100190.28;;;18.99;64.94
21129;BME280;10722;51.910;8.352;2023-08-08T13:52:18;100197.38;;;18.94;64.39
21129;BME280;10722;51.910;8.352;2023-08-08T13:55:04;100173.94;;;18.90;63.73
21129;BME280;10722;51.910;8.352;2023-08-08T13:57:49;100187.28;;;19.13;63.77
21129;BME280;10722;51.910;8.352;2023-08-08T14:00:33;100200.91;;;19.27;64.80
21129;BME280;10722;51.910;8.352;2023-08-08T14:03:18;100203.19;;;19.40;64.58
21129;BME280;10722;51.910;8.352;2023-08-08T14:06:04;100193.03;;;19.27;64.29
21129;BME280;10722;51.910;8.352;2023-08-08T14:08:49;100173.28;;;18.80;64.18
21129;BME280;10722;51.910;8.352;2023-08-08T14:11:34;100187.03;;;18.90;63.84
21129;BME280;10722;51.910;8.352;2023-08-08T14:14:19;100155.00;;;18.78;62.71
21129;BME280;10722;51.910;8.352;2023-08-08T14:17:04;100155.59;;;18.90;63.33
21129;BME280;10722;51.910;8.352;2023-08-08T14:19:49;100184.66;;;19.15;63.94